sensor_id;sensor_type;location;lat;lon;timestamp;temperature;humidity
21031;DHT22;61072;47.808;7.636;2023-03-29T00:02:23;11.20;97.80
21031;DHT22;61072;47.808;7.636;2023-03-29T00:04:57;11.20;97.10
21031;DHT22;61072;47.808;7.636;2023-03-29T00:07:28;11.20;97.20
21031;DHT22;61072;47.808;7.636;2023-03-29T00:09:55;11.20;96.70
21031;DHT22;61072;47.808;7.636;2023-03-29T00:12:23;11.30;96.70
21031;DHT22;61072;47.808;7.636;2023-03-29T00:14:50;11.30;96.80
21031;DHT22;61072;47.808;7.636;2023-03-29T00:17:16;11.30;96.50
21031;DHT22;61072;47.808;7.636;2023-03-29T00:19:44;11.30;96.90
21031;DHT22;61072;47.808;7.636;2023-03-29T00:22:10;11.40;96.70
21031;DHT22;61072;47.808;7.636;2023-03-29T00:24:37;11.40;97.00
21031;DHT22;61072;47.808;7.636;2023-03-29T00:27:04;11.40;96.80
21031;DHT22;61072;47.808;7.636;2023-03-29T00:29:31;11.40;96.70
21031;DHT22;61072;47.808;7.636;2023-03-29T00:31:58;11.40;97.00
21031;DHT22;61072;47.808;7.636;2023-03-29T00:34:26;11.40;97.00
21031;DHT22;61072;47.808;7.636;2023-03-29T00:37:02;11.40;97.50
21031;DHT22;61072;47.808;7.636;2023-03-29T00:39:29;11.40;97.60
21031;DHT22;61072;47.808;7.636;2023-03-29T00:41:56;11.40;97.60
21031;DHT22;61072;47.808;7.636;2023-03-29T00:44:58;11.40;97.80
21031;DHT22;61072;47.808;7.636;2023-03-29T00:47:42;11.40;98.10
21031;DHT22;61072;47.808;7.636;2023-03-29T00:50:23;11.40;98.50
21031;DHT22;61072;47.808;7.636;2023-03-29T00:53:06;11.40;98.30
21031;DHT22;61072;47.808;7.636;2023-03-29T00:55:37;11.40;98.90
21031;DHT22;61072;47.808;7.636;2023-03-29T00:58:06;11.40;99.00
21031;DHT22;61072;47.808;7.636;2023-03-29T01:00:39;11.40;98.70
21031;DHT22;61072;47.808;7.636;2023-03-29T01:03:10;11.40;98.90
21031;DHT22;61072;47.808;7.636;2023-03-29T01:05:43;11.40;99.10
21031;DHT22;61072;47.808;7.636;2023-03-29T01:08:22;11.40;99.10
21031;DHT22;61072;47.808;7.636;2023-03-29T01:10:57;11.30;99.30
21031;DHT22;61072;47.808;7.636;2023-03-29T01:13:36;11.30;99.40
21031;DHT22;61072;47.808;7.636;2023-03-29T01:16:06;11.30;99.80
21031;DHT22;61072;47.808;7.636;2023-03-29T01:18:34;11.30;99.90
21031;DHT22;61072;47.808;7.636;2023-03-29T01:28:55;11.30;99.90
21031;DHT22;61072;47.808;7.636;2023-03-29T01:31:29;11.30;99.90
21031;DHT22;61072;47.808;7.636;2023-03-29T01:34:03;11.30;99.90
21031;DHT22;61072;47.808;7.636;2023-03-29T01:36:37;11.20;99.90
21031;DHT22;61072;47.808;7.636;2023-03-29T01:39:06;11.20;99.90
21031;DHT22;61072;47.808;7.636;2023-03-29T01:41:41;11.20;99.90
21031;DHT22;61072;47.808;7.636;2023-03-29T01:44:23;11.20;99.90
21031;DHT22;61072;47.808;7.636;2023-03-29T01:47:01;11.20;99.90
21031;DHT22;61072;47.808;7.636;2023-03-29T01:52:55;11.20;99.90
21031;DHT22;61072;47.808;7.636;2023-03-29T01:55:29;11.20;99.90
21031;DHT22;61072;47.808;7.636;2023-03-29T01:57:58;11.20;99.90
21031;DHT22;61072;47.808;7.636;2023-03-29T02:00:28;11.10;99.90
21031;DHT22;61072;47.808;7.636;2023-03-29T02:02:59;11.10;99.90
21031;DHT22;61072;47.808;7.636;2023-03-29T02:05:27;11.10;99.90
21031;DHT22;61072;47.808;7.636;2023-03-29T02:07:55;11.10;99.90
21031;DHT22;61072;47.808;7.636;2023-03-29T02:10:23;11.10;99.90
21031;DHT22;61072;47.808;7.636;2023-03-29T02:12:49;11.10;99.90
21031;DHT22;61072;47.808;7.636;2023-03-29T02:15:19;11.10;99.90
21031;DHT22;61072;47.808;7.636;2023-03-29T02:17:47;11.00;99.90
21031;DHT22;61072;47.808;7.636;2023-03-29T02:23:36;11.00;99.90
21031;DHT22;61072;47.808;7.636;2023-03-29T02:25:39;11.00;99.90
21031;DHT22;61072;47.808;7.636;2023-03-29T02:28:06;11.00;99.90
21031;DHT22;61072;47.808;7.636;2023-03-29T02:36:20;10.90;99.90
21031;DHT22;61072;47.808;7.636;2023-03-29T02:38:49;10.90;99.90
21031;DHT22;61072;47.808;7.636;2023-03-29T02:41:17;10.90;99.90
21031;DHT22;61072;47.808;7.636;2023-03-29T02:43:44;10.90;99.90
21031;DHT22;61072;47.808;7.636;2023-03-29T02:46:12;10.80;99.90
21031;DHT22;61072;47.808;7.636;2023-03-29T02:48:41;10.80;99.90
21031;DHT22;61072;47.808;7.636;2023-03-29T02:51:19;10.80;99.90
21031;DHT22;61072;47.808;7.636;2023-03-29T02:54:03;10.80;99.90
21031;DHT22;61072;47.808;7.636;2023-03-29T02:56:47;10.80;99.90
21031;DHT22;61072;47.808;7.636;2023-03-29T02:59:15;10.80;99.90
21031;DHT22;61072;47.808;7.636;2023-03-29T03:01:42;10.80;99.90
21031;DHT22;61072;47.808;7.636;2023-03-29T03:04:11;10.80;99.90
21031;DHT22;61072;47.808;7.636;2023-03-29T03:06:38;10.70;99.90
21031;DHT22;61072;47.808;7.636;2023-03-29T03:09:05;10.70;99.90
21031;DHT22;61072;47.808;7.636;2023-03-29T03:11:32;10.70;99.90
21031;DHT22;61072;47.808;7.636;2023-03-29T03:13:59;10.70;99.90
21031;DHT22;61072;47.808;7.636;2023-03-29T03:16:26;10.70;99.90
21031;DHT22;61072;47.808;7.636;2023-03-29T03:18:53;10.70;99.90
21031;DHT22;61072;47.808;7.636;2023-03-29T03:21:21;10.60;99.90
21031;DHT22;61072;47.808;7.636;2023-03-29T03:23:48;10.60;99.90
21031;DHT22;61072;47.808;7.636;2023-03-29T03:26:16;10.60;99.90
21031;DHT22;61072;47.808;7.636;2023-03-29T03:28:43;10.60;99.90
21031;DHT22;61072;47.808;7.636;2023-03-29T03:31:11;10.60;99.90
21031;DHT22;61072;47.808;7.636;2023-03-29T03:33:41;10.60;99.90
21031;DHT22;61072;47.808;7.636;2023-03-29T03:36:09;10.60;99.90
21031;DHT22;61072;47.808;7.636;2023-03-29T03:38:36;10.60;99.90
21031;DHT22;61072;47.808;7.636;2023-03-29T03:41:04;10.60;99.90
21031;DHT22;61072;47.808;7.636;2023-03-29T03:43:33;10.60;99.90
21031;DHT22;61072;47.808;7.636;2023-03-29T03:46:00;10.60;99.90
21031;DHT22;61072;47.808;7.636;2023-03-29T03:48:27;10.60;99.90
21031;DHT22;61072;47.808;7.636;2023-03-29T03:50:56;10.70;99.90
21031;DHT22;61072;47.808;7.636;2023-03-29T03:53:24;10.70;99.90
21031;DHT22;61072;47.808;7.636;2023-03-29T03:55:53;10.70;99.90
21031;DHT22;61072;47.808;7.636;2023-03-29T03:58:21;10.70;99.90
21031;DHT22;61072;47.808;7.636;2023-03-29T04:00:49;10.70;99.90
21031;DHT22;61072;47.808;7.636;2023-03-29T04:03:16;10.70;99.90
21031;DHT22;61072;47.808;7.636;2023-03-29T04:05:45;10.80;99.90
21031;DHT22;61072;47.808;7.636;2023-03-29T04:08:13;10.80;99.90
21031;DHT22;61072;47.808;7.636;2023-03-29T04:10:40;10.80;99.90
21031;DHT22;61072;47.808;7.636;2023-03-29T04:13:07;10.90;99.90
21031;DHT22;61072;47.808;7.636;2023-03-29T04:15:35;10.90;99.90
21031;DHT22;61072;47.808;7.636;2023-03-29T04:18:04;10.90;99.90
21031;DHT22;61072;47.808;7.636;2023-03-29T04:20:33;10.90;99.90
21031;DHT22;61072;47.808;7.636;2023-03-29T04:23:00;11.00;99.90
21031;DHT22;61072;47.808;7.636;2023-03-29T04:25:27;11.00;99.90
21031;DHT22;61072;47.808;7.636;2023-03-29T04:27:55;11.00;99.90
21031;DHT22;61072;47.808;7.636;2023-03-29T04:30:22;11.00;99.90
21031;DHT22;61072;47.808;7.636;2023-03-29T04:32:48;11.00;99.90
21031;DHT22;61072;47.808;7.636;2023-03-29T04:35:15;11.00;99.90
21031;DHT22;61072;47.808;7.636;2023-03-29T04:37:42;11.00;99.90
21031;DHT22;61072;47.808;7.636;2023-03-29T04:40:10;11.00;99.90
21031;DHT22;61072;47.808;7.636;2023-03-29T04:42:40;11.00;99.90
21031;DHT22;61072;47.808;7.636;2023-03-29T04:45:10;11.00;99.90
21031;DHT22;61072;47.808;7.636;2023-03-29T04:47:40;11.10;99.90
21031;DHT22;61072;47.808;7.636;2023-03-29T04:50:07;11.00;99.90
21031;DHT22;61072;47.808;7.636;2023-03-29T04:52:34;11.10;99.90
21031;DHT22;61072;47.808;7.636;2023-03-29T04:55:02;11.10;99.90
21031;DHT22;61072;47.808;7.636;2023-03-29T04:57:29;11.10;99.90
21031;DHT22;61072;47.808;7.636;2023-03-29T04:59:56;11.10;99.90
21031;DHT22;61072;47.808;7.636;2023-03-29T05:02:23;11.10;99.90
21031;DHT22;61072;47.808;7.636;2023-03-29T05:04:50;11.00;99.90
21031;DHT22;61072;47.808;7.636;2023-03-29T05:07:16;11.00;99.90
21031;DHT22;61072;47.808;7.636;2023-03-29T05:09:44;11.00;99.90
21031;DHT22;61072;47.808;7.636;2023-03-29T05:12:11;11.00;99.90
21031;DHT22;61072;47.808;7.636;2023-03-29T05:14:38;11.00;99.90
21031;DHT22;61072;47.808;7.636;2023-03-29T05:17:04;11.10;99.90
21031;DHT22;61072;47.808;7.636;2023-03-29T05:19:32;11.10;99.90
21031;DHT22;61072;47.808;7.636;2023-03-29T05:21:59;11.10;99.90
21031;DHT22;61072;47.808;7.636;2023-03-29T05:24:26;11.10;99.90
21031;DHT22;61072;47.808;7.636;2023-03-29T05:26:52;11.10;99.90
21031;DHT22;61072;47.808;7.636;2023-03-29T05:29:19;11.10;99.90
21031;DHT22;61072;47.808;7.636;2023-03-29T05:31:47;11.10;99.90
21031;DHT22;61072;47.808;7.636;2023-03-29T05:34:13;11.20;99.90
21031;DHT22;61072;47.808;7.636;2023-03-29T05:36:40;11.20;99.90
21031;DHT22;61072;47.808;7.636;2023-03-29T05:39:08;11.20;99.90
21031;DHT22;61072;47.808;7.636;2023-03-29T05:41:36;11.20;99.90
21031;DHT22;61072;47.808;7.636;2023-03-29T05:44:03;11.20;99.90
21031;DHT22;61072;47.808;7.636;2023-03-29T05:46:30;11.20;99.90
21031;DHT22;61072;47.808;7.636;2023-03-29T05:48:56;11.20;99.90
21031;DHT22;61072;47.808;7.636;2023-03-29T05:51:23;11.20;99.90
21031;DHT22;61072;47.808;7.636;2023-03-29T05:53:50;11.20;99.90
21031;DHT22;61072;47.808;7.636;2023-03-29T05:56:17;11.20;99.90
21031;DHT22;61072;47.808;7.636;2023-03-29T05:58:45;11.30;99.90
21031;DHT22;61072;47.808;7.636;2023-03-29T06:01:14;11.30;99.90
21031;DHT22;61072;47.808;7.636;2023-03-29T06:03:43;11.30;99.90
21031;DHT22;61072;47.808;7.636;2023-03-29T06:06:12;11.30;99.90
21031;DHT22;61072;47.808;7.636;2023-03-29T06:08:42;11.30;99.90
21031;DHT22;61072;47.808;7.636;2023-03-29T06:11:11;11.30;99.90
21031;DHT22;61072;47.808;7.636;2023-03-29T06:13:39;11.30;99.90
21031;DHT22;61072;47.808;7.636;2023-03-29T06:16:10;11.30;99.90
21031;DHT22;61072;47.808;7.636;2023-03-29T06:18:39;11.30;99.90
21031;DHT22;61072;47.808;7.636;2023-03-29T06:21:07;11.30;99.90
21031;DHT22;61072;47.808;7.636;2023-03-29T06:23:34;11.30;99.90
21031;DHT22;61072;47.808;7.636;2023-03-29T06:26:02;11.30;99.90
21031;DHT22;61072;47.808;7.636;2023-03-29T06:28:29;11.30;99.90
21031;DHT22;61072;47.808;7.636;2023-03-29T06:30:56;11.30;99.90
21031;DHT22;61072;47.808;7.636;2023-03-29T06:33:30;11.30;99.90
21031;DHT22;61072;47.808;7.636;2023-03-29T06:35:57;11.40;99.90
21031;DHT22;61072;47.808;7.636;2023-03-29T06:38:25;11.40;99.90
21031;DHT22;61072;47.808;7.636;2023-03-29T06:41:07;11.40;99.90
21031;DHT22;61072;47.808;7.636;2023-03-29T06:43:34;11.50;99.90
21031;DHT22;61072;47.808;7.636;2023-03-29T06:46:00;11.50;99.90
21031;DHT22;61072;47.808;7.636;2023-03-29T06:48:28;11.50;99.90
21031;DHT22;61072;47.808;7.636;2023-03-29T06:50:55;11.60;99.90
21031;DHT22;61072;47.808;7.636;2023-03-29T06:53:21;11.60;99.90
21031;DHT22;61072;47.808;7.636;2023-03-29T06:55:49;11.70;99.90
21031;DHT22;61072;47.808;7.636;2023-03-29T06:58:17;11.70;99.90
21031;DHT22;61072;47.808;7.636;2023-03-29T07:00:45;11.70;99.90
21031;DHT22;61072;47.808;7.636;2023-03-29T07:03:12;11.80;99.90
21031;DHT22;61072;47.808;7.636;2023-03-29T07:05:46;11.80;99.90
21031;DHT22;61072;47.808;7.636;2023-03-29T07:08:13;11.90;99.90
21031;DHT22;61072;47.808;7.636;2023-03-29T07:10:44;11.90;99.90
21031;DHT22;61072;47.808;7.636;2023-03-29T07:13:12;12.00;99.90
21031;DHT22;61072;47.808;7.636;2023-03-29T07:15:40;12.00;99.90
21031;DHT22;61072;47.808;7.636;2023-03-29T07:18:08;12.10;99.90
21031;DHT22;61072;47.808;7.636;2023-03-29T07:20:35;12.10;99.90
21031;DHT22;61072;47.808;7.636;2023-03-29T07:23:05;12.20;99.90
21031;DHT22;61072;47.808;7.636;2023-03-29T07:25:32;12.20;99.90
21031;DHT22;61072;47.808;7.636;2023-03-29T07:27:59;12.30;99.90
21031;DHT22;61072;47.808;7.636;2023-03-29T07:30:28;12.40;99.90
21031;DHT22;61072;47.808;7.636;2023-03-29T07:32:57;12.40;99.90
21031;DHT22;61072;47.808;7.636;2023-03-29T07:35:25;12.50;99.90
21031;DHT22;61072;47.808;7.636;2023-03-29T07:37:52;12.50;99.90
21031;DHT22;61072;47.808;7.636;2023-03-29T07:40:21;12.60;99.90
21031;DHT22;61072;47.808;7.636;2023-03-29T07:42:54;12.70;99.90
21031;DHT22;61072;47.808;7.636;2023-03-29T07:45:23;12.70;99.90
21031;DHT22;61072;47.808;7.636;2023-03-29T07:47:55;12.80;99.90
21031;DHT22;61072;47.808;7.636;2023-03-29T07:50:23;12.80;99.90
21031;DHT22;61072;47.808;7.636;2023-03-29T07:52:51;12.90;99.90
21031;DHT22;61072;47.808;7.636;2023-03-29T07:55:17;13.00;99.90
21031;DHT22;61072;47.808;7.636;2023-03-29T07:57:44;13.00;99.90
21031;DHT22;61072;47.808;7.636;2023-03-29T08:00:12;13.00;99.90
21031;DHT22;61072;47.808;7.636;2023-03-29T08:02:43;13.10;99.90
21031;DHT22;61072;47.808;7.636;2023-03-29T08:05:12;13.10;99.90
21031;DHT22;61072;47.808;7.636;2023-03-29T08:07:43;13.20;99.90
21031;DHT22;61072;47.808;7.636;2023-03-29T08:10:12;13.30;99.90
21031;DHT22;61072;47.808;7.636;2023-03-29T08:12:40;13.30;99.90
21031;DHT22;61072;47.808;7.636;2023-03-29T08:15:08;13.40;99.90
21031;DHT22;61072;47.808;7.636;2023-03-29T08:17:35;13.40;99.90
21031;DHT22;61072;47.808;7.636;2023-03-29T08:20:06;13.40;99.90
21031;DHT22;61072;47.808;7.636;2023-03-29T08:22:33;13.40;99.90
21031;DHT22;61072;47.808;7.636;2023-03-29T08:25:00;13.40;99.90
21031;DHT22;61072;47.808;7.636;2023-03-29T08:27:28;13.40;99.90
21031;DHT22;61072;47.808;7.636;2023-03-29T08:29:55;13.40;99.90
21031;DHT22;61072;47.808;7.636;2023-03-29T08:32:22;13.40;99.90
21031;DHT22;61072;47.808;7.636;2023-03-29T08:34:48;13.50;99.90
21031;DHT22;61072;47.808;7.636;2023-03-29T08:37:15;13.50;99.90
21031;DHT22;61072;47.808;7.636;2023-03-29T08:39:42;13.50;99.90
21031;DHT22;61072;47.808;7.636;2023-03-29T08:50:49;13.70;99.90
21031;DHT22;61072;47.808;7.636;2023-03-29T08:53:26;13.70;99.90
21031;DHT22;61072;47.808;7.636;2023-03-29T08:55:56;13.80;99.90
21031;DHT22;61072;47.808;7.636;2023-03-29T08:58:26;13.80;99.90
21031;DHT22;61072;47.808;7.636;2023-03-29T09:00:58;13.80;99.90
21031;DHT22;61072;47.808;7.636;2023-03-29T09:03:42;13.90;99.90
21031;DHT22;61072;47.808;7.636;2023-03-29T09:06:11;13.90;99.90
21031;DHT22;61072;47.808;7.636;2023-03-29T09:08:44;14.00;99.90
21031;DHT22;61072;47.808;7.636;2023-03-29T09:14:08;14.10;99.90
21031;DHT22;61072;47.808;7.636;2023-03-29T09:19:32;14.20;99.90
21031;DHT22;61072;47.808;7.636;2023-03-29T09:22:12;14.30;99.90
21031;DHT22;61072;47.808;7.636;2023-03-29T09:27:49;14.40;99.90
21031;DHT22;61072;47.808;7.636;2023-03-29T09:30:40;14.50;99.90
21031;DHT22;61072;47.808;7.636;2023-03-29T09:33:22;14.60;99.90
21031;DHT22;61072;47.808;7.636;2023-03-29T09:38:52;14.80;99.90
21031;DHT22;61072;47.808;7.636;2023-03-29T09:43:57;14.90;99.90
21031;DHT22;61072;47.808;7.636;2023-03-29T09:49:30;15.10;99.90
21031;DHT22;61072;47.808;7.636;2023-03-29T09:52:00;15.10;99.90
21031;DHT22;61072;47.808;7.636;2023-03-29T09:54:30;15.10;99.90
21031;DHT22;61072;47.808;7.636;2023-03-29T09:56:58;15.20;99.90
21031;DHT22;61072;47.808;7.636;2023-03-29T09:59:25;15.30;99.90
21031;DHT22;61072;47.808;7.636;2023-03-29T10:01:51;15.30;99.90
21031;DHT22;61072;47.808;7.636;2023-03-29T10:04:18;15.40;99.90
21031;DHT22;61072;47.808;7.636;2023-03-29T10:06:48;15.40;99.90
21031;DHT22;61072;47.808;7.636;2023-03-29T10:09:22;15.50;99.90
21031;DHT22;61072;47.808;7.636;2023-03-29T10:11:54;15.60;99.90
21031;DHT22;61072;47.808;7.636;2023-03-29T10:14:36;15.60;99.90
21031;DHT22;61072;47.808;7.636;2023-03-29T10:17:19;15.60;99.90
21031;DHT22;61072;47.808;7.636;2023-03-29T10:19:54;15.60;99.90
21031;DHT22;61072;47.808;7.636;2023-03-29T10:22:25;15.60;99.90
21031;DHT22;61072;47.808;7.636;2023-03-29T10:24:53;15.60;99.90
21031;DHT22;61072;47.808;7.636;2023-03-29T10:27:24;15.60;99.90
21031;DHT22;61072;47.808;7.636;2023-03-29T10:29:51;15.60;99.90
21031;DHT22;61072;47.808;7.636;2023-03-29T10:32:34;15.70;99.90
21031;DHT22;61072;47.808;7.636;2023-03-29T10:35:08;15.80;99.90
21031;DHT22;61072;47.808;7.636;2023-03-29T10:37:41;15.90;99.90
21031;DHT22;61072;47.808;7.636;2023-03-29T10:40:21;16.00;99.90
21031;DHT22;61072;47.808;7.636;2023-03-29T10:42:51;16.10;99.90
21031;DHT22;61072;47.808;7.636;2023-03-29T10:45:24;16.20;99.90
21031;DHT22;61072;47.808;7.636;2023-03-29T10:47:54;16.40;99.90
21031;DHT22;61072;47.808;7.636;2023-03-29T10:50:22;16.50;99.90
21031;DHT22;61072;47.808;7.636;2023-03-29T10:52:48;16.60;99.90
21031;DHT22;61072;47.808;7.636;2023-03-29T10:55:18;16.60;99.90
21031;DHT22;61072;47.808;7.636;2023-03-29T11:01:01;16.80;99.20
21031;DHT22;61072;47.808;7.636;2023-03-29T11:04:06;16.80;99.90
21031;DHT22;61072;47.808;7.636;2023-03-29T11:06:39;17.00;99.90
21031;DHT22;61072;47.808;7.636;2023-03-29T11:25:34;17.40;99.90
21031;DHT22;61072;47.808;7.636;2023-03-29T11:31:14;17.50;99.90
21031;DHT22;61072;47.808;7.636;2023-03-29T11:34:13;17.50;99.90
21031;DHT22;61072;47.808;7.636;2023-03-29T11:36:48;17.60;99.90
21031;DHT22;61072;47.808;7.636;2023-03-29T11:42:12;17.70;99.90
21031;DHT22;61072;47.808;7.636;2023-03-29T11:44:40;17.70;99.90
21031;DHT22;61072;47.808;7.636;2023-03-29T11:47:28;17.80;99.90
21031;DHT22;61072;47.808;7.636;2023-03-29T11:50:41;17.80;99.90
21031;DHT22;61072;47.808;7.636;2023-03-29T11:52:53;17.90;99.90
21031;DHT22;61072;47.808;7.636;2023-03-29T11:55:24;17.90;99.90
21031;DHT22;61072;47.808;7.636;2023-03-29T11:57:59;18.00;99.90
21031;DHT22;61072;47.808;7.636;2023-03-29T12:06:03;18.10;99.90
21031;DHT22;61072;47.808;7.636;2023-03-29T12:08:38;18.20;99.90
21031;DHT22;61072;47.808;7.636;2023-03-29T12:11:10;18.20;99.90
21031;DHT22;61072;47.808;7.636;2023-03-29T12:13:43;18.20;99.90
21031;DHT22;61072;47.808;7.636;2023-03-29T12:16:18;18.20;99.90
21031;DHT22;61072;47.808;7.636;2023-03-29T12:18:49;18.20;99.90
21031;DHT22;61072;47.808;7.636;2023-03-29T12:21:25;18.30;99.90
21031;DHT22;61072;47.808;7.636;2023-03-29T12:23:54;18.30;99.90
21031;DHT22;61072;47.808;7.636;2023-03-29T12:29:15;18.40;99.90
21031;DHT22;61072;47.808;7.636;2023-03-29T12:34:26;18.50;99.90
21031;DHT22;61072;47.808;7.636;2023-03-29T12:37:39;18.60;99.90
21031;DHT22;61072;47.808;7.636;2023-03-29T12:40:18;18.60;99.90
21031;DHT22;61072;47.808;7.636;2023-03-29T12:42:47;18.60;99.90
21031;DHT22;61072;47.808;7.636;2023-03-29T12:45:32;18.70;99.90
21031;DHT22;61072;47.808;7.636;2023-03-29T12:48:00;18.70;99.90
21031;DHT22;61072;47.808;7.636;2023-03-29T12:50:40;18.80;99.90
21031;DHT22;61072;47.808;7.636;2023-03-29T12:53:21;18.80;99.90
21031;DHT22;61072;47.808;7.636;2023-03-29T12:56:11;18.90;99.90
21031;DHT22;61072;47.808;7.636;2023-03-29T13:04:19;19.00;99.90
21031;DHT22;61072;47.808;7.636;2023-03-29T13:07:00;19.00;99.90
21031;DHT22;61072;47.808;7.636;2023-03-29T13:09:52;19.00;99.90
21031;DHT22;61072;47.808;7.636;2023-03-29T13:12:26;19.00;99.90
21031;DHT22;61072;47.808;7.636;2023-03-29T13:20:46;19.00;99.90
21031;DHT22;61072;47.808;7.636;2023-03-29T13:28:51;19.00;99.90
21031;DHT22;61072;47.808;7.636;2023-03-29T13:31:35;19.00;99.90
21031;DHT22;61072;47.808;7.636;2023-03-29T13:34:26;19.00;99.90
21031;DHT22;61072;47.808;7.636;2023-03-29T13:37:21;19.00;99.90
21031;DHT22;61072;47.808;7.636;2023-03-29T13:39:51;19.00;99.90
21031;DHT22;61072;47.808;7.636;2023-03-29T13:45:25;19.00;99.90
21031;DHT22;61072;47.808;7.636;2023-03-29T13:55:58;19.10;99.90
21031;DHT22;61072;47.808;7.636;2023-03-29T13:58:52;19.10;99.90
21031;DHT22;61072;47.808;7.636;2023-03-29T14:01:28;19.10;99.90
21031;DHT22;61072;47.808;7.636;2023-03-29T14:03:57;19.10;99.90
21031;DHT22;61072;47.808;7.636;2023-03-29T14:06:28;19.10;99.90
21031;DHT22;61072;47.808;7.636;2023-03-29T14:08:55;19.00;99.90
21031;DHT22;61072;47.808;7.636;2023-03-29T14:11:24;19.00;99.90
21031;DHT22;61072;47.808;7.636;2023-03-29T14:13:57;19.00;99.90
21031;DHT22;61072;47.808;7.636;2023-03-29T14:16:36;19.00;99.90
21031;DHT22;61072;47.808;7.636;2023-03-29T14:19:14;19.00;99.90
21031;DHT22;61072;47.808;7.636;2023-03-29T14:21:42;19.00;99.90
21031;DHT22;61072;47.808;7.636;2023-03-29T14:24:11;19.00;99.90
21031;DHT22;61072;47.808;7.636;2023-03-29T14:26:46;19.00;99.90
21031;DHT22;61072;47.808;7.636;2023-03-29T14:29:13;19.00;99.90
21031;DHT22;61072;47.808;7.636;2023-03-29T14:31:41;19.00;99.90
21031;DHT22;61072;47.808;7.636;2023-03-29T14:34:15;19.00;99.90
21031;DHT22;61072;47.808;7.636;2023-03-29T14:36:47;19.00;99.90
21031;DHT22;61072;47.808;7.636;2023-03-29T14:39:21;19.00;99.90
21031;DHT22;61072;47.808;7.636;2023-03-29T14:41:53;18.90;99.90
21031;DHT22;61072;47.808;7.636;2023-03-29T14:44:23;18.90;99.90
21031;DHT22;61072;47.808;7.636;2023-03-29T14:46:52;18.90;99.90
21031;DHT22;61072;47.808;7.636;2023-03-29T14:49:20;18.90;99.90
21031;DHT22;61072;47.808;7.636;2023-03-29T14:51:48;18.90;99.90
21031;DHT22;61072;47.808;7.636;2023-03-29T14:56:48;19.00;99.90
21031;DHT22;61072;47.808;7.636;2023-03-29T15:01:55;19.00;99.90
21031;DHT22;61072;47.808;7.636;2023-03-29T15:04:21;18.90;99.90
21031;DHT22;61072;47.808;7.636;2023-03-29T15:06:48;18.90;99.90
21031;DHT22;61072;47.808;7.636;2023-03-29T15:09:27;18.90;99.90
21031;DHT22;61072;47.808;7.636;2023-03-29T15:11:57;18.80;99.90
21031;DHT22;61072;47.808;7.636;2023-03-29T15:14:27;18.70;99.90
21031;DHT22;61072;47.808;7.636;2023-03-29T15:17:02;18.70;99.90
21031;DHT22;61072;47.808;7.636;2023-03-29T15:19:30;18.60;99.90
21031;DHT22;61072;47.808;7.636;2023-03-29T15:22:03;18.60;99.90
21031;DHT22;61072;47.808;7.636;2023-03-29T15:24:46;18.50;99.90
21031;DHT22;61072;47.808;7.636;2023-03-29T15:27:15;18.50;99.90
21031;DHT22;61072;47.808;7.636;2023-03-29T15:29:44;18.50;99.90
21031;DHT22;61072;47.808;7.636;2023-03-29T15:32:23;18.50;99.90
21031;DHT22;61072;47.808;7.636;2023-03-29T15:35:03;18.50;99.90
21031;DHT22;61072;47.808;7.636;2023-03-29T15:37:30;18.40;99.90
21031;DHT22;61072;47.808;7.636;2023-03-29T15:39:57;18.40;99.90
21031;DHT22;61072;47.808;7.636;2023-03-29T15:42:24;18.40;99.90
21031;DHT22;61072;47.808;7.636;2023-03-29T15:44:53;18.50;99.90
21031;DHT22;61072;47.808;7.636;2023-03-29T15:47:21;18.40;99.90
21031;DHT22;61072;47.808;7.636;2023-03-29T15:49:49;18.40;99.90
21031;DHT22;61072;47.808;7.636;2023-03-29T15:52:16;18.30;99.90
21031;DHT22;61072;47.808;7.636;2023-03-29T15:54:43;18.30;99.90
21031;DHT22;61072;47.808;7.636;2023-03-29T15:57:13;18.30;99.90
21031;DHT22;61072;47.808;7.636;2023-03-29T15:59:41;18.20;99.90
21031;DHT22;61072;47.808;7.636;2023-03-29T16:02:13;18.20;99.90
21031;DHT22;61072;47.808;7.636;2023-03-29T16:04:41;18.10;99.90
21031;DHT22;61072;47.808;7.636;2023-03-29T16:07:13;18.10;99.90
21031;DHT22;61072;47.808;7.636;2023-03-29T16:09:40;18.10;99.90
21031;DHT22;61072;47.808;7.636;2023-03-29T16:12:08;18.10;99.90
21031;DHT22;61072;47.808;7.636;2023-03-29T16:14:35;18.10;99.90
21031;DHT22;61072;47.808;7.636;2023-03-29T16:17:03;18.00;99.90
21031;DHT22;61072;47.808;7.636;2023-03-29T16:19:30;18.00;99.90
21031;DHT22;61072;47.808;7.636;2023-03-29T16:21:59;18.00;99.90
21031;DHT22;61072;47.808;7.636;2023-03-29T16:24:29;18.00;99.90
21031;DHT22;61072;47.808;7.636;2023-03-29T16:26:58;18.00;99.90
21031;DHT22;61072;47.808;7.636;2023-03-29T16:29:24;18.00;99.90
21031;DHT22;61072;47.808;7.636;2023-03-29T16:31:52;18.00;99.90
21031;DHT22;61072;47.808;7.636;2023-03-29T16:34:19;18.00;99.90
21031;DHT22;61072;47.808;7.636;2023-03-29T16:36:48;17.90;99.90
21031;DHT22;61072;47.808;7.636;2023-03-29T16:39:14;17.90;99.90
21031;DHT22;61072;47.808;7.636;2023-03-29T16:41:42;17.90;99.90
21031;DHT22;61072;47.808;7.636;2023-03-29T16:44:16;17.80;99.90
21031;DHT22;61072;47.808;7.636;2023-03-29T16:46:48;17.80;99.90
21031;DHT22;61072;47.808;7.636;2023-03-29T16:49:15;17.80;99.90
21031;DHT22;61072;47.808;7.636;2023-03-29T16:51:44;17.70;99.90
21031;DHT22;61072;47.808;7.636;2023-03-29T16:54:12;17.70;99.90
21031;DHT22;61072;47.808;7.636;2023-03-29T16:56:39;17.70;99.90
21031;DHT22;61072;47.808;7.636;2023-03-29T16:59:06;17.60;99.90
21031;DHT22;61072;47.808;7.636;2023-03-29T17:01:34;17.60;99.90
21031;DHT22;61072;47.808;7.636;2023-03-29T17:04:01;17.60;99.90
21031;DHT22;61072;47.808;7.636;2023-03-29T17:06:29;17.50;99.90
21031;DHT22;61072;47.808;7.636;2023-03-29T17:08:57;17.50;99.90
21031;DHT22;61072;47.808;7.636;2023-03-29T17:11:24;17.50;99.90
21031;DHT22;61072;47.808;7.636;2023-03-29T17:13:52;17.40;99.90
21031;DHT22;61072;47.808;7.636;2023-03-29T17:16:19;17.40;99.90
21031;DHT22;61072;47.808;7.636;2023-03-29T17:18:46;17.30;99.90
21031;DHT22;61072;47.808;7.636;2023-03-29T17:21:13;17.30;99.90
21031;DHT22;61072;47.808;7.636;2023-03-29T17:23:40;17.20;99.90
21031;DHT22;61072;47.808;7.636;2023-03-29T17:26:06;17.20;99.90
21031;DHT22;61072;47.808;7.636;2023-03-29T17:28:34;17.20;99.90
21031;DHT22;61072;47.808;7.636;2023-03-29T17:31:07;17.10;99.90
21031;DHT22;61072;47.808;7.636;2023-03-29T17:33:35;17.10;99.90
21031;DHT22;61072;47.808;7.636;2023-03-29T17:36:03;17.00;99.90
21031;DHT22;61072;47.808;7.636;2023-03-29T17:38:30;17.00;99.90
21031;DHT22;61072;47.808;7.636;2023-03-29T17:40:59;17.00;99.90
21031;DHT22;61072;47.808;7.636;2023-03-29T17:43:26;16.90;99.90
21031;DHT22;61072;47.808;7.636;2023-03-29T17:45:53;16.90;99.90
21031;DHT22;61072;47.808;7.636;2023-03-29T17:48:22;16.90;99.90